sensor_id;sensor_type;location;lat;lon;timestamp;P1;durP1;ratioP1;P2;durP2;ratioP2
18574;SDS011;9417;16.484;102.872;2023-03-29T00:00:46;26.67;;;19.02;;
18574;SDS011;9417;16.484;102.872;2023-03-29T00:02:53;25.95;;;17.63;;
18574;SDS011;9417;16.484;102.872;2023-03-29T00:05:01;23.35;;;17.30;;
18574;SDS011;9417;16.484;102.872;2023-03-29T00:07:11;26.00;;;17.10;;
18574;SDS011;9417;16.484;102.872;2023-03-29T00:09:18;22.98;;;16.70;;
18574;SDS011;9417;16.484;102.872;2023-03-29T00:11:26;22.80;;;16.83;;
18574;SDS011;9417;16.484;102.872;2023-03-29T00:13:33;23.90;;;17.05;;
18574;SDS011;9417;16.484;102.872;2023-03-29T00:15:40;26.17;;;18.40;;
18574;SDS011;9417;16.484;102.872;2023-03-29T00:17:47;24.80;;;17.55;;
18574;SDS011;9417;16.484;102.872;2023-03-29T00:19:55;22.50;;;16.40;;
18574;SDS011;9417;16.484;102.872;2023-03-29T00:22:03;22.25;;;16.67;;
18574;SDS011;9417;16.484;102.872;2023-03-29T00:24:12;24.02;;;16.80;;
18574;SDS011;9417;16.484;102.872;2023-03-29T00:26:20;22.92;;;17.88;;
18574;SDS011;9417;16.484;102.872;2023-03-29T00:28:27;24.17;;;16.73;;
18574;SDS011;9417;16.484;102.872;2023-03-29T00:30:34;24.70;;;16.98;;
18574;SDS011;9417;16.484;102.872;2023-03-29T00:32:42;23.60;;;17.30;;
18574;SDS011;9417;16.484;102.872;2023-03-29T00:34:49;22.23;;;17.30;;
18574;SDS011;9417;16.484;102.872;2023-03-29T00:36:57;20.67;;;16.25;;
18574;SDS011;9417;16.484;102.872;2023-03-29T00:39:05;22.50;;;16.85;;
18574;SDS011;9417;16.484;102.872;2023-03-29T00:41:14;21.70;;;16.42;;
18574;SDS011;9417;16.484;102.872;2023-03-29T00:43:21;20.67;;;16.13;;
18574;SDS011;9417;16.484;102.872;2023-03-29T00:45:29;18.80;;;14.75;;
18574;SDS011;9417;16.484;102.872;2023-03-29T00:47:40;19.60;;;14.27;;
18574;SDS011;9417;16.484;102.872;2023-03-29T00:49:49;21.02;;;15.13;;
18574;SDS011;9417;16.484;102.872;2023-03-29T00:51:57;16.73;;;13.70;;
18574;SDS011;9417;16.484;102.872;2023-03-29T00:54:05;19.38;;;13.38;;
18574;SDS011;9417;16.484;102.872;2023-03-29T00:56:19;18.98;;;13.90;;
18574;SDS011;9417;16.484;102.872;2023-03-29T00:58:30;15.98;;;13.30;;
18574;SDS011;9417;16.484;102.872;2023-03-29T01:00:44;15.85;;;12.98;;
18574;SDS011;9417;16.484;102.872;2023-03-29T01:02:57;17.33;;;13.68;;
18574;SDS011;9417;16.484;102.872;2023-03-29T01:05:10;19.92;;;14.88;;
18574;SDS011;9417;16.484;102.872;2023-03-29T01:07:23;18.35;;;13.68;;
18574;SDS011;9417;16.484;102.872;2023-03-29T01:09:34;19.80;;;12.70;;
18574;SDS011;9417;16.484;102.872;2023-03-29T01:11:46;17.67;;;12.95;;
18574;SDS011;9417;16.484;102.872;2023-03-29T01:14:00;17.25;;;12.57;;
18574;SDS011;9417;16.484;102.872;2023-03-29T01:16:09;18.92;;;13.18;;
18574;SDS011;9417;16.484;102.872;2023-03-29T01:18:22;17.17;;;13.57;;
18574;SDS011;9417;16.484;102.872;2023-03-29T01:20:33;19.33;;;13.23;;
18574;SDS011;9417;16.484;102.872;2023-03-29T01:23:03;17.48;;;13.23;;
18574;SDS011;9417;16.484;102.872;2023-03-29T01:25:19;17.20;;;12.38;;
18574;SDS011;9417;16.484;102.872;2023-03-29T01:27:45;17.77;;;12.27;;
18574;SDS011;9417;16.484;102.872;2023-03-29T01:30:00;17.00;;;12.70;;
18574;SDS011;9417;16.484;102.872;2023-03-29T01:32:10;17.80;;;12.00;;
18574;SDS011;9417;16.484;102.872;2023-03-29T01:34:23;15.43;;;11.50;;
18574;SDS011;9417;16.484;102.872;2023-03-29T01:36:36;14.73;;;11.00;;
18574;SDS011;9417;16.484;102.872;2023-03-29T01:38:49;14.63;;;11.25;;
18574;SDS011;9417;16.484;102.872;2023-03-29T01:40:59;14.82;;;11.65;;
18574;SDS011;9417;16.484;102.872;2023-03-29T01:43:12;14.25;;;10.57;;
18574;SDS011;9417;16.484;102.872;2023-03-29T01:45:28;12.82;;;10.43;;
18574;SDS011;9417;16.484;102.872;2023-03-29T01:47:43;14.40;;;11.18;;
18574;SDS011;9417;16.484;102.872;2023-03-29T01:50:01;14.43;;;10.30;;
18574;SDS011;9417;16.484;102.872;2023-03-29T01:52:17;16.52;;;11.45;;
18574;SDS011;9417;16.484;102.872;2023-03-29T01:54:30;14.93;;;11.35;;
18574;SDS011;9417;16.484;102.872;2023-03-29T01:56:40;16.67;;;12.05;;
18574;SDS011;9417;16.484;102.872;2023-03-29T01:58:52;16.65;;;11.30;;
18574;SDS011;9417;16.484;102.872;2023-03-29T02:01:03;17.75;;;12.00;;
18574;SDS011;9417;16.484;102.872;2023-03-29T02:03:15;18.33;;;13.27;;
18574;SDS011;9417;16.484;102.872;2023-03-29T02:05:24;17.70;;;12.27;;
18574;SDS011;9417;16.484;102.872;2023-03-29T02:07:34;18.05;;;13.27;;
18574;SDS011;9417;16.484;102.872;2023-03-29T02:09:43;20.85;;;13.45;;
18574;SDS011;9417;16.484;102.872;2023-03-29T02:11:52;20.15;;;13.50;;
18574;SDS011;9417;16.484;102.872;2023-03-29T02:14:03;19.25;;;13.68;;
18574;SDS011;9417;16.484;102.872;2023-03-29T02:16:11;18.83;;;14.20;;
18574;SDS011;9417;16.484;102.872;2023-03-29T02:18:19;20.73;;;13.23;;
18574;SDS011;9417;16.484;102.872;2023-03-29T02:20:28;17.52;;;13.20;;
18574;SDS011;9417;16.484;102.872;2023-03-29T02:22:37;15.98;;;12.23;;
18574;SDS011;9417;16.484;102.872;2023-03-29T02:24:51;16.27;;;13.15;;
18574;SDS011;9417;16.484;102.872;2023-03-29T02:27:01;18.60;;;12.50;;
18574;SDS011;9417;16.484;102.872;2023-03-29T02:29:12;19.02;;;13.27;;
18574;SDS011;9417;16.484;102.872;2023-03-29T02:31:20;17.00;;;13.02;;
18574;SDS011;9417;16.484;102.872;2023-03-29T02:33:31;17.95;;;13.52;;
18574;SDS011;9417;16.484;102.872;2023-03-29T02:35:50;17.05;;;13.73;;
18574;SDS011;9417;16.484;102.872;2023-03-29T02:38:02;18.08;;;13.95;;
18574;SDS011;9417;16.484;102.872;2023-03-29T02:40:11;19.88;;;13.70;;
18574;SDS011;9417;16.484;102.872;2023-03-29T02:42:20;17.38;;;13.95;;
18574;SDS011;9417;16.484;102.872;2023-03-29T02:44:31;16.58;;;13.95;;
18574;SDS011;9417;16.484;102.872;2023-03-29T02:46:43;16.98;;;14.15;;
18574;SDS011;9417;16.484;102.872;2023-03-29T02:48:54;20.88;;;13.80;;
18574;SDS011;9417;16.484;102.872;2023-03-29T02:51:04;18.95;;;14.40;;
18574;SDS011;9417;16.484;102.872;2023-03-29T02:53:16;35.75;;;15.35;;
18574;SDS011;9417;16.484;102.872;2023-03-29T02:55:27;32.22;;;13.95;;
18574;SDS011;9417;16.484;102.872;2023-03-29T02:57:37;19.33;;;13.73;;
18574;SDS011;9417;16.484;102.872;2023-03-29T02:59:48;17.38;;;13.15;;
18574;SDS011;9417;16.484;102.872;2023-03-29T03:01:55;18.90;;;13.52;;
18574;SDS011;9417;16.484;102.872;2023-03-29T03:04:03;16.80;;;12.30;;
18574;SDS011;9417;16.484;102.872;2023-03-29T03:06:10;17.35;;;12.57;;
18574;SDS011;9417;16.484;102.872;2023-03-29T03:08:18;14.60;;;11.52;;
18574;SDS011;9417;16.484;102.872;2023-03-29T03:10:26;16.38;;;11.95;;
18574;SDS011;9417;16.484;102.872;2023-03-29T03:12:37;16.03;;;12.47;;
18574;SDS011;9417;16.484;102.872;2023-03-29T03:14:47;15.02;;;12.05;;
18574;SDS011;9417;16.484;102.872;2023-03-29T03:16:54;15.88;;;11.73;;
18574;SDS011;9417;16.484;102.872;2023-03-29T03:19:05;18.13;;;12.10;;
18574;SDS011;9417;16.484;102.872;2023-03-29T03:21:13;16.80;;;12.55;;
18574;SDS011;9417;16.484;102.872;2023-03-29T03:23:20;17.65;;;12.82;;
18574;SDS011;9417;16.484;102.872;2023-03-29T03:25:28;18.33;;;12.52;;
18574;SDS011;9417;16.484;102.872;2023-03-29T03:27:36;18.60;;;13.00;;
18574;SDS011;9417;16.484;102.872;2023-03-29T03:29:45;14.68;;;12.70;;
18574;SDS011;9417;16.484;102.872;2023-03-29T03:32:20;16.52;;;13.35;;
18574;SDS011;9417;16.484;102.872;2023-03-29T03:34:45;17.08;;;12.73;;
18574;SDS011;9417;16.484;102.872;2023-03-29T03:36:56;16.98;;;13.07;;
18574;SDS011;9417;16.484;102.872;2023-03-29T03:39:08;16.30;;;12.43;;
18574;SDS011;9417;16.484;102.872;2023-03-29T03:41:17;15.65;;;12.10;;
18574;SDS011;9417;16.484;102.872;2023-03-29T03:43:24;18.38;;;11.95;;
18574;SDS011;9417;16.484;102.872;2023-03-29T03:45:34;17.15;;;12.07;;
18574;SDS011;9417;16.484;102.872;2023-03-29T03:47:46;17.95;;;11.32;;
18574;SDS011;9417;16.484;102.872;2023-03-29T03:50:07;14.18;;;11.23;;
18574;SDS011;9417;16.484;102.872;2023-03-29T03:52:16;14.98;;;10.25;;
18574;SDS011;9417;16.484;102.872;2023-03-29T03:54:24;14.57;;;8.98;;
18574;SDS011;9417;16.484;102.872;2023-03-29T03:56:57;13.80;;;9.52;;
18574;SDS011;9417;16.484;102.872;2023-03-29T03:59:16;14.80;;;10.32;;
18574;SDS011;9417;16.484;102.872;2023-03-29T04:01:41;13.68;;;10.40;;
18574;SDS011;9417;16.484;102.872;2023-03-29T04:03:53;14.18;;;11.30;;
18574;SDS011;9417;16.484;102.872;2023-03-29T04:06:01;13.38;;;10.13;;
18574;SDS011;9417;16.484;102.872;2023-03-29T04:08:27;14.02;;;11.27;;
18574;SDS011;9417;16.484;102.872;2023-03-29T04:10:50;14.93;;;11.93;;
18574;SDS011;9417;16.484;102.872;2023-03-29T04:13:03;14.38;;;12.05;;
18574;SDS011;9417;16.484;102.872;2023-03-29T04:15:30;18.05;;;12.50;;
18574;SDS011;9417;16.484;102.872;2023-03-29T04:17:45;13.93;;;11.48;;
18574;SDS011;9417;16.484;102.872;2023-03-29T04:19:58;16.55;;;12.82;;
18574;SDS011;9417;16.484;102.872;2023-03-29T04:22:14;15.30;;;12.85;;
18574;SDS011;9417;16.484;102.872;2023-03-29T04:24:22;16.65;;;12.75;;
18574;SDS011;9417;16.484;102.872;2023-03-29T04:26:50;15.13;;;12.82;;
18574;SDS011;9417;16.484;102.872;2023-03-29T04:28:58;17.13;;;13.45;;
18574;SDS011;9417;16.484;102.872;2023-03-29T04:31:14;18.98;;;13.65;;
18574;SDS011;9417;16.484;102.872;2023-03-29T04:33:35;16.17;;;12.30;;
18574;SDS011;9417;16.484;102.872;2023-03-29T04:35:43;15.23;;;13.05;;
18574;SDS011;9417;16.484;102.872;2023-03-29T04:37:52;19.00;;;13.85;;
18574;SDS011;9417;16.484;102.872;2023-03-29T04:40:00;15.40;;;12.55;;
18574;SDS011;9417;16.484;102.872;2023-03-29T04:42:26;16.63;;;12.35;;
18574;SDS011;9417;16.484;102.872;2023-03-29T04:44:33;16.20;;;11.70;;
18574;SDS011;9417;16.484;102.872;2023-03-29T04:46:43;15.05;;;11.02;;
18574;SDS011;9417;16.484;102.872;2023-03-29T04:49:12;15.50;;;11.93;;
18574;SDS011;9417;16.484;102.872;2023-03-29T04:51:23;12.32;;;11.02;;
18574;SDS011;9417;16.484;102.872;2023-03-29T04:53:33;14.27;;;11.38;;
18574;SDS011;9417;16.484;102.872;2023-03-29T04:55:40;13.43;;;10.73;;
18574;SDS011;9417;16.484;102.872;2023-03-29T04:57:52;13.80;;;11.20;;
18574;SDS011;9417;16.484;102.872;2023-03-29T05:00:08;13.18;;;10.82;;
18574;SDS011;9417;16.484;102.872;2023-03-29T05:02:41;17.30;;;11.13;;
18574;SDS011;9417;16.484;102.872;2023-03-29T05:04:51;13.30;;;11.13;;
18574;SDS011;9417;16.484;102.872;2023-03-29T05:06:59;14.07;;;11.50;;
18574;SDS011;9417;16.484;102.872;2023-03-29T05:09:07;14.02;;;10.93;;
18574;SDS011;9417;16.484;102.872;2023-03-29T05:11:25;13.30;;;10.48;;
18574;SDS011;9417;16.484;102.872;2023-03-29T05:13:33;12.25;;;10.85;;
18574;SDS011;9417;16.484;102.872;2023-03-29T05:15:41;15.77;;;10.55;;
18574;SDS011;9417;16.484;102.872;2023-03-29T05:17:49;12.98;;;10.38;;
18574;SDS011;9417;16.484;102.872;2023-03-29T05:19:58;14.38;;;10.88;;
18574;SDS011;9417;16.484;102.872;2023-03-29T05:22:09;13.60;;;10.85;;
18574;SDS011;9417;16.484;102.872;2023-03-29T05:24:17;12.93;;;10.15;;
18574;SDS011;9417;16.484;102.872;2023-03-29T05:26:25;10.80;;;9.68;;
18574;SDS011;9417;16.484;102.872;2023-03-29T05:28:33;12.27;;;10.27;;
18574;SDS011;9417;16.484;102.872;2023-03-29T05:30:41;11.70;;;9.52;;
18574;SDS011;9417;16.484;102.872;2023-03-29T05:32:54;11.55;;;9.23;;
18574;SDS011;9417;16.484;102.872;2023-03-29T05:35:05;12.98;;;9.90;;
18574;SDS011;9417;16.484;102.872;2023-03-29T05:37:13;11.48;;;9.93;;
18574;SDS011;9417;16.484;102.872;2023-03-29T05:39:26;12.02;;;10.43;;
18574;SDS011;9417;16.484;102.872;2023-03-29T05:41:34;13.35;;;10.60;;
18574;SDS011;9417;16.484;102.872;2023-03-29T05:44:02;13.82;;;10.10;;
18574;SDS011;9417;16.484;102.872;2023-03-29T05:46:12;12.65;;;9.93;;
18574;SDS011;9417;16.484;102.872;2023-03-29T05:48:25;14.20;;;10.38;;
18574;SDS011;9417;16.484;102.872;2023-03-29T05:50:36;14.57;;;10.50;;
18574;SDS011;9417;16.484;102.872;2023-03-29T05:52:46;11.52;;;9.57;;
18574;SDS011;9417;16.484;102.872;2023-03-29T05:54:53;11.77;;;10.55;;
18574;SDS011;9417;16.484;102.872;2023-03-29T05:57:01;14.18;;;10.13;;
18574;SDS011;9417;16.484;102.872;2023-03-29T05:59:09;11.85;;;10.02;;
18574;SDS011;9417;16.484;102.872;2023-03-29T06:01:17;12.77;;;10.27;;
18574;SDS011;9417;16.484;102.872;2023-03-29T06:03:33;15.05;;;10.25;;
18574;SDS011;9417;16.484;102.872;2023-03-29T06:05:43;12.88;;;9.77;;
18574;SDS011;9417;16.484;102.872;2023-03-29T06:07:52;11.73;;;9.98;;
18574;SDS011;9417;16.484;102.872;2023-03-29T06:10:18;11.45;;;8.60;;
18574;SDS011;9417;16.484;102.872;2023-03-29T06:12:34;12.23;;;10.07;;
18574;SDS011;9417;16.484;102.872;2023-03-29T06:14:41;12.20;;;9.52;;
18574;SDS011;9417;16.484;102.872;2023-03-29T06:17:09;11.60;;;9.75;;
18574;SDS011;9417;16.484;102.872;2023-03-29T06:19:16;13.70;;;10.10;;
18574;SDS011;9417;16.484;102.872;2023-03-29T06:21:26;11.32;;;9.63;;
18574;SDS011;9417;16.484;102.872;2023-03-29T06:23:34;13.02;;;10.63;;
18574;SDS011;9417;16.484;102.872;2023-03-29T06:25:42;12.85;;;10.00;;
18574;SDS011;9417;16.484;102.872;2023-03-29T06:27:50;12.68;;;10.40;;
18574;SDS011;9417;16.484;102.872;2023-03-29T06:29:57;13.20;;;10.00;;
18574;SDS011;9417;16.484;102.872;2023-03-29T06:32:05;13.20;;;10.07;;
18574;SDS011;9417;16.484;102.872;2023-03-29T06:34:22;12.10;;;9.50;;
18574;SDS011;9417;16.484;102.872;2023-03-29T06:36:50;16.08;;;10.55;;
18574;SDS011;9417;16.484;102.872;2023-03-29T06:38:57;14.30;;;10.10;;
18574;SDS011;9417;16.484;102.872;2023-03-29T06:41:29;13.30;;;10.07;;
18574;SDS011;9417;16.484;102.872;2023-03-29T06:43:42;11.35;;;10.13;;
18574;SDS011;9417;16.484;102.872;2023-03-29T06:45:50;13.25;;;10.13;;
18574;SDS011;9417;16.484;102.872;2023-03-29T06:48:11;11.93;;;9.38;;
18574;SDS011;9417;16.484;102.872;2023-03-29T06:50:19;15.50;;;9.90;;
18574;SDS011;9417;16.484;102.872;2023-03-29T06:52:38;11.25;;;9.10;;
18574;SDS011;9417;16.484;102.872;2023-03-29T06:54:47;12.40;;;9.77;;
18574;SDS011;9417;16.484;102.872;2023-03-29T06:56:58;11.60;;;10.13;;
18574;SDS011;9417;16.484;102.872;2023-03-29T06:59:08;12.73;;;10.15;;
18574;SDS011;9417;16.484;102.872;2023-03-29T07:01:48;11.32;;;9.35;;
18574;SDS011;9417;16.484;102.872;2023-03-29T07:04:11;12.55;;;9.50;;
18574;SDS011;9417;16.484;102.872;2023-03-29T07:06:38;14.27;;;10.60;;
18574;SDS011;9417;16.484;102.872;2023-03-29T07:08:52;14.43;;;10.80;;
18574;SDS011;9417;16.484;102.872;2023-03-29T07:11:20;13.15;;;9.63;;
18574;SDS011;9417;16.484;102.872;2023-03-29T07:13:31;12.15;;;10.05;;
18574;SDS011;9417;16.484;102.872;2023-03-29T07:15:42;12.68;;;10.20;;
18574;SDS011;9417;16.484;102.872;2023-03-29T07:18:07;12.07;;;10.05;;
18574;SDS011;9417;16.484;102.872;2023-03-29T07:20:15;14.70;;;10.57;;
18574;SDS011;9417;16.484;102.872;2023-03-29T07:22:36;11.48;;;10.07;;
18574;SDS011;9417;16.484;102.872;2023-03-29T07:24:45;13.50;;;10.23;;
18574;SDS011;9417;16.484;102.872;2023-03-29T07:26:53;12.23;;;10.13;;
18574;SDS011;9417;16.484;102.872;2023-03-29T07:29:07;13.23;;;10.82;;
18574;SDS011;9417;16.484;102.872;2023-03-29T07:31:15;14.95;;;9.43;;
18574;SDS011;9417;16.484;102.872;2023-03-29T07:33:28;11.80;;;10.15;;
18574;SDS011;9417;16.484;102.872;2023-03-29T07:35:39;13.02;;;10.10;;
18574;SDS011;9417;16.484;102.872;2023-03-29T07:37:48;12.68;;;9.90;;
18574;SDS011;9417;16.484;102.872;2023-03-29T07:39:57;11.40;;;9.88;;
18574;SDS011;9417;16.484;102.872;2023-03-29T07:42:09;11.95;;;9.77;;
18574;SDS011;9417;16.484;102.872;2023-03-29T07:44:17;14.68;;;10.30;;
18574;SDS011;9417;16.484;102.872;2023-03-29T07:46:26;12.52;;;9.90;;
18574;SDS011;9417;16.484;102.872;2023-03-29T07:48:33;11.52;;;9.68;;
18574;SDS011;9417;16.484;102.872;2023-03-29T07:50:47;13.75;;;9.95;;
18574;SDS011;9417;16.484;102.872;2023-03-29T07:53:00;13.10;;;10.52;;
18574;SDS011;9417;16.484;102.872;2023-03-29T07:55:10;12.73;;;10.55;;
18574;SDS011;9417;16.484;102.872;2023-03-29T07:57:29;11.65;;;9.88;;
18574;SDS011;9417;16.484;102.872;2023-03-29T07:59:37;12.32;;;9.02;;
18574;SDS011;9417;16.484;102.872;2023-03-29T08:01:50;13.73;;;10.35;;
18574;SDS011;9417;16.484;102.872;2023-03-29T08:04:08;11.43;;;9.27;;
18574;SDS011;9417;16.484;102.872;2023-03-29T08:06:34;12.10;;;9.68;;
18574;SDS011;9417;16.484;102.872;2023-03-29T08:08:42;13.68;;;10.30;;
18574;SDS011;9417;16.484;102.872;2023-03-29T08:10:53;12.05;;;9.73;;
18574;SDS011;9417;16.484;102.872;2023-03-29T08:13:23;12.65;;;9.73;;
18574;SDS011;9417;16.484;102.872;2023-03-29T08:15:48;11.02;;;9.45;;
18574;SDS011;9417;16.484;102.872;2023-03-29T08:18:07;12.60;;;9.25;;
18574;SDS011;9417;16.484;102.872;2023-03-29T08:20:15;10.80;;;9.15;;
18574;SDS011;9417;16.484;102.872;2023-03-29T08:22:25;11.40;;;9.38;;
18574;SDS011;9417;16.484;102.872;2023-03-29T08:24:57;10.45;;;8.88;;
18574;SDS011;9417;16.484;102.872;2023-03-29T08:27:11;10.55;;;9.35;;
18574;SDS011;9417;16.484;102.872;2023-03-29T08:29:18;12.60;;;9.25;;
18574;SDS011;9417;16.484;102.872;2023-03-29T08:31:26;11.77;;;9.40;;
18574;SDS011;9417;16.484;102.872;2023-03-29T08:33:33;12.63;;;8.90;;
18574;SDS011;9417;16.484;102.872;2023-03-29T08:36:15;11.45;;;8.75;;
18574;SDS011;9417;16.484;102.872;2023-03-29T08:38:25;12.05;;;9.75;;
18574;SDS011;9417;16.484;102.872;2023-03-29T08:40:32;11.80;;;9.30;;
18574;SDS011;9417;16.484;102.872;2023-03-29T08:42:47;10.27;;;9.00;;
18574;SDS011;9417;16.484;102.872;2023-03-29T08:45:24;10.93;;;9.68;;
18574;SDS011;9417;16.484;102.872;2023-03-29T08:47:40;11.90;;;9.50;;
18574;SDS011;9417;16.484;102.872;2023-03-29T08:49:54;11.48;;;8.73;;
18574;SDS011;9417;16.484;102.872;2023-03-29T08:52:15;13.80;;;9.57;;
18574;SDS011;9417;16.484;102.872;2023-03-29T08:54:28;14.55;;;9.35;;
18574;SDS011;9417;16.484;102.872;2023-03-29T08:56:44;10.85;;;9.35;;
18574;SDS011;9417;16.484;102.872;2023-03-29T08:58:59;12.30;;;9.63;;
18574;SDS011;9417;16.484;102.872;2023-03-29T09:01:07;11.32;;;9.85;;
18574;SDS011;9417;16.484;102.872;2023-03-29T09:03:28;14.45;;;9.38;;
18574;SDS011;9417;16.484;102.872;2023-03-29T09:05:50;14.40;;;10.43;;
18574;SDS011;9417;16.484;102.872;2023-03-29T09:08:01;15.15;;;10.05;;
18574;SDS011;9417;16.484;102.872;2023-03-29T09:10:11;14.75;;;9.30;;
18574;SDS011;9417;16.484;102.872;2023-03-29T09:12:25;11.65;;;10.13;;
18574;SDS011;9417;16.484;102.872;2023-03-29T09:14:46;13.07;;;9.60;;
18574;SDS011;9417;16.484;102.872;2023-03-29T09:17:03;11.50;;;8.88;;
18574;SDS011;9417;16.484;102.872;2023-03-29T09:19:23;11.48;;;9.07;;
18574;SDS011;9417;16.484;102.872;2023-03-29T09:21:39;11.85;;;9.38;;
18574;SDS011;9417;16.484;102.872;2023-03-29T09:26:38;11.32;;;8.75;;
18574;SDS011;9417;16.484;102.872;2023-03-29T09:29:02;14.25;;;8.65;;
18574;SDS011;9417;16.484;102.872;2023-03-29T09:31:25;12.32;;;8.80;;
18574;SDS011;9417;16.484;102.872;2023-03-29T09:33:37;11.82;;;9.20;;
18574;SDS011;9417;16.484;102.872;2023-03-29T09:35:52;11.48;;;9.23;;
18574;SDS011;9417;16.484;102.872;2023-03-29T09:38:09;11.70;;;9.15;;
18574;SDS011;9417;16.484;102.872;2023-03-29T09:40:20;11.00;;;9.05;;
18574;SDS011;9417;16.484;102.872;2023-03-29T09:42:38;13.82;;;9.07;;
18574;SDS011;9417;16.484;102.872;2023-03-29T09:44:46;12.05;;;9.15;;
18574;SDS011;9417;16.484;102.872;2023-03-29T09:47:10;9.50;;;8.23;;
18574;SDS011;9417;16.484;102.872;2023-03-29T09:49:24;10.90;;;9.07;;
18574;SDS011;9417;16.484;102.872;2023-03-29T09:51:34;11.75;;;9.02;;
18574;SDS011;9417;16.484;102.872;2023-03-29T09:53:42;12.85;;;10.38;;
18574;SDS011;9417;16.484;102.872;2023-03-29T09:56:12;15.23;;;10.30;;
18574;SDS011;9417;16.484;102.872;2023-03-29T09:58:28;12.80;;;9.50;;
18574;SDS011;9417;16.484;102.872;2023-03-29T10:00:36;10.38;;;8.63;;
18574;SDS011;9417;16.484;102.872;2023-03-29T10:02:50;12.43;;;9.25;;
18574;SDS011;9417;16.484;102.872;2023-03-29T10:05:14;12.20;;;9.18;;
18574;SDS011;9417;16.484;102.872;2023-03-29T10:07:21;12.40;;;9.50;;
18574;SDS011;9417;16.484;102.872;2023-03-29T10:09:32;11.30;;;9.53;;
18574;SDS011;9417;16.484;102.872;2023-03-29T10:11:50;11.60;;;8.95;;
18574;SDS011;9417;16.484;102.872;2023-03-29T10:14:00;14.38;;;9.68;;
18574;SDS011;9417;16.484;102.872;2023-03-29T10:16:15;13.63;;;9.00;;
18574;SDS011;9417;16.484;102.872;2023-03-29T10:18:28;11.90;;;9.15;;
18574;SDS011;9417;16.484;102.872;2023-03-29T10:20:37;10.90;;;8.43;;
18574;SDS011;9417;16.484;102.872;2023-03-29T10:22:46;10.15;;;8.32;;
18574;SDS011;9417;16.484;102.872;2023-03-29T10:24:55;14.48;;;9.20;;
18574;SDS011;9417;16.484;102.872;2023-03-29T10:27:03;13.80;;;8.88;;
18574;SDS011;9417;16.484;102.872;2023-03-29T10:29:15;11.13;;;8.82;;
18574;SDS011;9417;16.484;102.872;2023-03-29T10:31:22;11.55;;;8.95;;
18574;SDS011;9417;16.484;102.872;2023-03-29T10:33:35;9.07;;;7.72;;
18574;SDS011;9417;16.484;102.872;2023-03-29T10:35:45;13.43;;;8.20;;
18574;SDS011;9417;16.484;102.872;2023-03-29T10:37:54;11.18;;;8.38;;
18574;SDS011;9417;16.484;102.872;2023-03-29T10:40:02;10.25;;;9.20;;
18574;SDS011;9417;16.484;102.872;2023-03-29T10:42:11;13.25;;;10.27;;
18574;SDS011;9417;16.484;102.872;2023-03-29T10:44:24;12.77;;;10.85;;
18574;SDS011;9417;16.484;102.872;2023-03-29T10:46:39;14.65;;;10.95;;
18574;SDS011;9417;16.484;102.872;2023-03-29T10:48:49;15.00;;;12.02;;
18574;SDS011;9417;16.484;102.872;2023-03-29T10:51:00;14.93;;;11.55;;
18574;SDS011;9417;16.484;102.872;2023-03-29T10:53:11;18.73;;;12.52;;
18574;SDS011;9417;16.484;102.872;2023-03-29T10:55:22;14.02;;;12.52;;
18574;SDS011;9417;16.484;102.872;2023-03-29T10:57:39;16.13;;;12.38;;
18574;SDS011;9417;16.484;102.872;2023-03-29T10:59:56;15.45;;;13.38;;
18574;SDS011;9417;16.484;102.872;2023-03-29T11:05:01;20.42;;;12.98;;
18574;SDS011;9417;16.484;102.872;2023-03-29T11:07:27;16.13;;;12.68;;
18574;SDS011;9417;16.484;102.872;2023-03-29T11:09:40;17.48;;;12.77;;
18574;SDS011;9417;16.484;102.872;2023-03-29T11:11:59;17.08;;;12.05;;
18574;SDS011;9417;16.484;102.872;2023-03-29T11:14:23;16.55;;;12.35;;
18574;SDS011;9417;16.484;102.872;2023-03-29T11:16:38;13.40;;;10.70;;
18574;SDS011;9417;16.484;102.872;2023-03-29T11:19:02;18.13;;;11.88;;
18574;SDS011;9417;16.484;102.872;2023-03-29T11:21:28;15.48;;;12.15;;
18574;SDS011;9417;16.484;102.872;2023-03-29T11:23:44;14.18;;;10.95;;
18574;SDS011;9417;16.484;102.872;2023-03-29T11:26:02;16.85;;;12.20;;
18574;SDS011;9417;16.484;102.872;2023-03-29T11:28:17;15.23;;;11.60;;
18574;SDS011;9417;16.484;102.872;2023-03-29T11:30:35;19.50;;;12.15;;
18574;SDS011;9417;16.484;102.872;2023-03-29T11:32:48;16.80;;;11.40;;
18574;SDS011;9417;16.484;102.872;2023-03-29T11:35:04;14.40;;;11.90;;
18574;SDS011;9417;16.484;102.872;2023-03-29T11:37:27;14.77;;;12.10;;
18574;SDS011;9417;16.484;102.872;2023-03-29T11:39:39;14.25;;;10.98;;
18574;SDS011;9417;16.484;102.872;2023-03-29T11:41:53;15.55;;;11.38;;
18574;SDS011;9417;16.484;102.872;2023-03-29T11:44:08;15.27;;;11.60;;
18574;SDS011;9417;16.484;102.872;2023-03-29T11:46:22;16.77;;;12.15;;
18574;SDS011;9417;16.484;102.872;2023-03-29T11:48:40;18.73;;;11.73;;
18574;SDS011;9417;16.484;102.872;2023-03-29T11:50:53;18.08;;;12.80;;
18574;SDS011;9417;16.484;102.872;2023-03-29T11:53:06;17.25;;;12.38;;
18574;SDS011;9417;16.484;102.872;2023-03-29T11:55:18;17.88;;;12.55;;
18574;SDS011;9417;16.484;102.872;2023-03-29T11:57:29;13.70;;;11.32;;
18574;SDS011;9417;16.484;102.872;2023-03-29T11:59:40;16.17;;;12.23;;
18574;SDS011;9417;16.484;102.872;2023-03-29T12:01:53;14.90;;;12.20;;
18574;SDS011;9417;16.484;102.872;2023-03-29T12:04:08;13.07;;;11.23;;
18574;SDS011;9417;16.484;102.872;2023-03-29T12:06:20;14.02;;;11.68;;
18574;SDS011;9417;16.484;102.872;2023-03-29T12:08:33;16.55;;;11.70;;
18574;SDS011;9417;16.484;102.872;2023-03-29T12:10:45;17.13;;;11.20;;
18574;SDS011;9417;16.484;102.872;2023-03-29T12:12:57;16.85;;;11.40;;
18574;SDS011;9417;16.484;102.872;2023-03-29T12:15:09;15.18;;;11.80;;
18574;SDS011;9417;16.484;102.872;2023-03-29T12:17:26;15.82;;;11.77;;
18574;SDS011;9417;16.484;102.872;2023-03-29T12:19:36;17.17;;;11.57;;
18574;SDS011;9417;16.484;102.872;2023-03-29T12:21:51;16.30;;;12.32;;
18574;SDS011;9417;16.484;102.872;2023-03-29T12:24:01;18.60;;;12.88;;
18574;SDS011;9417;16.484;102.872;2023-03-29T12:26:13;14.98;;;12.63;;
18574;SDS011;9417;16.484;102.872;2023-03-29T12:28:40;15.15;;;11.50;;
18574;SDS011;9417;16.484;102.872;2023-03-29T12:31:09;15.43;;;11.90;;
18574;SDS011;9417;16.484;102.872;2023-03-29T12:33:28;15.55;;;11.55;;
18574;SDS011;9417;16.484;102.872;2023-03-29T12:36:12;14.90;;;11.48;;
18574;SDS011;9417;16.484;102.872;2023-03-29T12:38:37;17.88;;;12.27;;
18574;SDS011;9417;16.484;102.872;2023-03-29T12:41:11;16.75;;;11.63;;
18574;SDS011;9417;16.484;102.872;2023-03-29T12:43:39;14.32;;;10.93;;
18574;SDS011;9417;16.484;102.872;2023-03-29T12:46:09;15.15;;;11.35;;
18574;SDS011;9417;16.484;102.872;2023-03-29T12:48:22;15.43;;;12.02;;
18574;SDS011;9417;16.484;102.872;2023-03-29T12:50:32;15.90;;;11.27;;
18574;SDS011;9417;16.484;102.872;2023-03-29T12:52:40;14.48;;;10.98;;
18574;SDS011;9417;16.484;102.872;2023-03-29T12:54:52;15.98;;;11.93;;
18574;SDS011;9417;16.484;102.872;2023-03-29T12:57:17;16.90;;;12.02;;
18574;SDS011;9417;16.484;102.872;2023-03-29T12:59:26;21.35;;;12.65;;